createdAt,value
2018-12-05T00:02:26.157Z,-0.80
2018-12-05T00:04:54.398Z,-0.80
2018-12-05T00:07:22.629Z,-0.80
2018-12-05T00:09:50.873Z,-0.80
2018-12-05T00:12:19.183Z,-0.80
2018-12-05T00:14:53.411Z,-0.80
2018-12-05T00:20:19.522Z,-0.80
2018-12-05T00:28:01.982Z,-0.80
2018-12-05T00:30:39.807Z,-0.80
2018-12-05T00:33:11.635Z,-0.80
2018-12-05T00:35:45.257Z,-0.80
2018-12-05T00:38:19.278Z,-0.80
2018-12-05T00:40:49.241Z,-0.80
2018-12-05T00:43:29.910Z,-0.80
2018-12-05T00:48:31.725Z,-0.80
2018-12-05T00:51:12.509Z,-0.80
2018-12-05T00:56:37.748Z,-0.80
2018-12-05T00:59:06.126Z,-0.80
2018-12-05T01:04:15.698Z,-0.90
2018-12-05T01:06:49.651Z,-0.90
2018-12-05T01:09:25.658Z,-0.80
2018-12-05T01:11:59.726Z,-0.90
2018-12-05T01:14:33.511Z,-0.90
2018-12-05T01:19:41.537Z,-1.00
2018-12-05T01:22:15.438Z,-0.90
2018-12-05T01:24:49.527Z,-0.90
2018-12-05T01:27:23.683Z,-1.00
2018-12-05T01:30:01.667Z,-1.00
2018-12-05T01:35:11.644Z,-1.00
2018-12-05T01:40:49.053Z,-0.90
2018-12-05T01:43:23.058Z,-0.90
2018-12-05T01:45:55.381Z,-0.90
2018-12-05T01:48:29.889Z,-0.90
2018-12-05T01:51:04.169Z,-0.90
2018-12-05T01:53:32.392Z,-0.90
2018-12-05T01:56:00.606Z,-0.90
2018-12-05T01:58:32.749Z,-0.80
2018-12-05T02:01:13.568Z,-0.80
2018-12-05T02:03:41.872Z,-0.80
2018-12-05T02:06:10.308Z,-0.80
2018-12-05T02:08:38.595Z,-0.70
2018-12-05T02:11:06.826Z,-0.70
2018-12-05T02:13:35.026Z,-0.70
2018-12-05T02:16:03.254Z,-0.60
2018-12-05T02:18:31.500Z,-0.60
2018-12-05T02:20:59.745Z,-0.60
2018-12-05T02:23:27.946Z,-0.60
2018-12-05T02:25:56.168Z,-0.60
2018-12-05T02:28:24.391Z,-0.60
2018-12-05T02:30:52.617Z,-0.60
2018-12-05T02:33:20.997Z,-0.60
2018-12-05T02:35:49.273Z,-0.50
2018-12-05T02:38:17.462Z,-0.50
2018-12-05T02:40:46.405Z,-0.50
2018-12-05T02:43:14.725Z,-0.50
2018-12-05T02:45:42.978Z,-0.50
2018-12-05T02:48:11.281Z,-0.50
2018-12-05T02:50:39.570Z,-0.50
2018-12-05T02:53:07.827Z,-0.50
2018-12-05T02:55:36.154Z,-0.50
2018-12-05T02:58:04.462Z,-0.50
2018-12-05T03:00:32.800Z,-0.50
2018-12-05T03:03:01.055Z,-0.50
2018-12-05T03:05:29.329Z,-0.50
2018-12-05T03:07:57.574Z,-0.50
2018-12-05T03:10:25.803Z,-0.50
2018-12-05T03:12:54.020Z,-0.50
2018-12-05T03:15:22.272Z,-0.50
2018-12-05T03:17:53.587Z,-0.50
2018-12-05T03:20:27.842Z,-0.50
2018-12-05T03:29:01.656Z,-0.50
2018-12-05T03:31:39.607Z,-0.50
2018-12-05T03:36:45.220Z,-0.50
2018-12-05T03:39:16.720Z,-0.50
2018-12-05T03:41:48.595Z,-0.50
2018-12-05T03:47:19.242Z,-0.50
2018-12-05T03:52:17.942Z,-0.50
2018-12-05T03:54:52.183Z,-0.50
2018-12-05T03:57:30.303Z,-0.50
2018-12-05T04:00:04.363Z,-0.50
2018-12-05T04:05:07.976Z,-0.50
2018-12-05T04:07:44.368Z,-0.50
2018-12-05T04:10:22.183Z,-0.50
2018-12-05T04:12:56.080Z,-0.60
2018-12-05T04:15:30.142Z,-0.60
2018-12-05T04:20:55.242Z,-0.60
2018-12-05T04:23:26.680Z,-0.60
2018-12-05T04:26:01.380Z,-0.60
2018-12-05T04:28:35.342Z,-0.60
2018-12-05T04:31:13.090Z,-0.60
2018-12-05T04:36:20.949Z,-0.70
2018-12-05T04:38:54.822Z,-0.70
2018-12-05T04:41:28.797Z,-0.70
2018-12-05T04:46:53.743Z,-0.70
2018-12-05T04:52:02.682Z,-0.70
2018-12-05T05:02:29.727Z,-0.80
2018-12-05T05:04:57.944Z,-0.80
2018-12-05T05:07:26.133Z,-0.80
2018-12-05T05:09:54.314Z,-0.80
2018-12-05T05:12:22.538Z,-0.90
2018-12-05T05:14:50.736Z,-0.90
2018-12-05T05:17:24.431Z,-0.90
2018-12-05T05:19:52.650Z,-0.90
2018-12-05T05:25:18.108Z,-0.90
2018-12-05T05:27:59.072Z,-0.90
2018-12-05T05:30:27.261Z,-0.90
2018-12-05T05:33:02.854Z,-1.00
2018-12-05T05:35:36.749Z,-1.00
2018-12-05T05:38:04.979Z,-1.00
2018-12-05T05:40:33.168Z,-1.00
2018-12-05T05:43:01.390Z,-1.00
2018-12-05T05:45:29.574Z,-1.00
2018-12-05T05:47:57.840Z,-1.00
2018-12-05T05:50:26.107Z,-1.00
2018-12-05T05:52:54.411Z,-1.00
2018-12-05T05:55:22.694Z,-1.00
2018-12-05T05:57:50.941Z,-1.00
2018-12-05T06:00:19.143Z,-1.00
2018-12-05T06:02:47.346Z,-1.00
2018-12-05T06:05:15.578Z,-1.00
2018-12-05T06:07:43.787Z,-1.00
2018-12-05T06:10:11.989Z,-1.00
2018-12-05T06:12:40.296Z,-0.90
2018-12-05T06:15:09.218Z,-0.90
2018-12-05T06:17:37.522Z,-0.90
2018-12-05T06:20:05.850Z,-0.90
2018-12-05T06:22:34.063Z,-0.80
2018-12-05T06:25:02.239Z,-0.80
2018-12-05T06:27:30.470Z,-0.80
2018-12-05T06:29:58.600Z,-0.80
2018-12-05T06:32:26.747Z,-0.70
2018-12-05T06:34:54.858Z,-0.70
2018-12-05T06:37:23.118Z,-0.70
2018-12-05T06:39:51.243Z,-0.70
2018-12-05T06:42:19.515Z,-0.70
2018-12-05T06:44:47.679Z,-0.70
2018-12-05T06:47:15.807Z,-0.80
2018-12-05T06:49:44.016Z,-0.80
2018-12-05T06:52:12.147Z,-0.80
2018-12-05T06:54:40.291Z,-0.80
2018-12-05T06:57:08.510Z,-0.80
2018-12-05T06:59:36.650Z,-0.80
2018-12-05T07:02:05.031Z,-0.80
2018-12-05T07:04:33.187Z,-0.80
2018-12-05T07:07:01.327Z,-0.80
2018-12-05T07:09:29.665Z,-0.80
2018-12-05T07:11:57.787Z,-0.80
2018-12-05T07:14:25.954Z,-0.80
2018-12-05T07:16:54.066Z,-0.70
2018-12-05T07:19:22.224Z,-0.70
2018-12-05T07:21:50.417Z,-0.70
2018-12-05T07:24:18.569Z,-0.70
2018-12-05T07:26:46.719Z,-0.60
2018-12-05T07:29:14.866Z,-0.60
2018-12-05T07:31:42.999Z,-0.60
2018-12-05T07:34:11.146Z,-0.60
2018-12-05T07:36:39.293Z,-0.50
2018-12-05T07:39:08.335Z,-0.50
2018-12-05T07:41:36.458Z,-0.50
2018-12-05T07:44:04.683Z,-0.50
2018-12-05T07:46:32.915Z,-0.50
2018-12-05T07:49:01.051Z,-0.40
2018-12-05T07:51:29.179Z,-0.40
2018-12-05T07:53:57.328Z,-0.40
2018-12-05T07:56:25.450Z,-0.40
2018-12-05T07:58:53.590Z,-0.40
2018-12-05T08:01:21.802Z,-0.40
2018-12-05T08:03:49.951Z,-0.30
2018-12-05T08:06:18.182Z,-0.30
2018-12-05T08:08:46.495Z,-0.30
2018-12-05T08:11:14.690Z,-0.30
2018-12-05T08:13:42.878Z,-0.20
2018-12-05T08:16:11.101Z,-0.20
2018-12-05T08:18:39.311Z,-0.20
2018-12-05T08:21:07.518Z,-0.10
2018-12-05T08:23:35.726Z,0.00
2018-12-05T08:26:04.022Z,0.00
2018-12-05T08:28:32.206Z,0.10
2018-12-05T08:31:00.411Z,0.10
2018-12-05T08:33:28.774Z,0.20
2018-12-05T08:35:56.999Z,0.20
2018-12-05T08:38:25.190Z,0.20
2018-12-05T08:40:53.398Z,0.20
2018-12-05T08:43:21.582Z,0.20
2018-12-05T08:45:49.870Z,0.20
2018-12-05T08:48:18.063Z,0.20
2018-12-05T08:50:46.266Z,0.30
2018-12-05T08:53:14.452Z,0.20
2018-12-05T08:55:42.654Z,0.30
2018-12-05T08:58:10.838Z,0.30
2018-12-05T09:00:39.129Z,0.30
2018-12-05T09:03:07.327Z,0.30
2018-12-05T09:05:35.581Z,0.40
2018-12-05T09:08:03.854Z,0.40
2018-12-05T09:10:32.258Z,0.40
2018-12-05T09:13:00.581Z,0.50
2018-12-05T09:15:28.857Z,0.40
2018-12-05T09:17:57.033Z,0.40
2018-12-05T09:20:25.230Z,0.50
2018-12-05T09:22:53.410Z,0.50
2018-12-05T09:25:21.597Z,0.60
2018-12-05T09:27:49.794Z,0.60
2018-12-05T09:30:18.187Z,0.60
2018-12-05T09:32:46.361Z,0.60
2018-12-05T09:35:14.518Z,0.70
2018-12-05T09:37:42.710Z,0.70
2018-12-05T09:40:10.881Z,0.70
2018-12-05T09:42:39.733Z,0.70
2018-12-05T09:45:11.225Z,0.70
2018-12-05T09:47:39.411Z,0.80
2018-12-05T09:50:07.749Z,0.80
2018-12-05T09:52:35.941Z,0.80
2018-12-05T09:55:04.646Z,0.90
2018-12-05T09:57:32.949Z,0.90
2018-12-05T10:00:01.117Z,0.90
2018-12-05T10:02:29.306Z,0.90
2018-12-05T10:04:57.733Z,1.00
2018-12-05T10:07:25.926Z,1.00
2018-12-05T10:09:55.776Z,1.00
2018-12-05T10:12:23.970Z,1.00
2018-12-05T10:14:52.213Z,1.00
2018-12-05T10:17:20.398Z,1.00
2018-12-05T10:19:48.664Z,1.10
2018-12-05T10:22:16.845Z,1.10
2018-12-05T10:24:45.098Z,1.10
2018-12-05T10:27:13.371Z,1.10
2018-12-05T10:29:41.650Z,1.10
2018-12-05T10:32:09.917Z,1.20
2018-12-05T10:34:38.262Z,1.20
2018-12-05T10:37:06.450Z,1.20
2018-12-05T10:39:34.617Z,1.30
2018-12-05T10:42:02.808Z,1.30
2018-12-05T10:44:30.970Z,1.30
2018-12-05T10:46:59.325Z,1.30
2018-12-05T10:49:27.776Z,1.30
2018-12-05T10:51:55.968Z,1.40
2018-12-05T10:54:24.170Z,1.40
2018-12-05T10:56:52.386Z,1.40
2018-12-05T10:59:20.650Z,1.40
2018-12-05T11:01:54.159Z,1.40
2018-12-05T11:04:27.834Z,1.50
2018-12-05T11:07:01.477Z,1.50
2018-12-05T11:09:35.131Z,1.60
2018-12-05T11:12:08.869Z,1.60
2018-12-05T11:14:42.434Z,1.70
2018-12-05T11:17:16.052Z,1.70
2018-12-05T11:19:49.852Z,1.80
2018-12-05T11:22:23.466Z,1.80
2018-12-05T11:24:55.961Z,1.80
2018-12-05T11:27:24.240Z,1.80
2018-12-05T11:29:52.502Z,1.90
2018-12-05T11:32:20.694Z,1.90
2018-12-05T11:34:48.866Z,2.00
2018-12-05T11:37:17.042Z,2.00
2018-12-05T11:39:45.209Z,2.00
2018-12-05T11:42:13.407Z,2.10
2018-12-05T11:44:41.561Z,2.10
2018-12-05T11:47:10.030Z,2.10
2018-12-05T11:49:38.260Z,2.10
2018-12-05T11:52:06.417Z,2.10
2018-12-05T11:54:34.687Z,2.20
2018-12-05T11:57:03.014Z,2.20
2018-12-05T11:59:31.216Z,2.20
2018-12-05T12:01:59.399Z,2.30
2018-12-05T12:04:27.582Z,2.30
2018-12-05T12:06:55.814Z,2.30
2018-12-05T12:09:24.167Z,2.40
2018-12-05T12:11:52.411Z,2.40
2018-12-05T12:14:20.604Z,2.40
2018-12-05T12:16:48.790Z,2.40
2018-12-05T12:19:16.950Z,2.40
2018-12-05T12:21:45.189Z,2.40
2018-12-05T12:24:13.362Z,2.50
2018-12-05T12:26:41.528Z,2.50
2018-12-05T12:29:09.720Z,2.50
2018-12-05T12:31:37.900Z,2.50
2018-12-05T12:34:06.104Z,2.50
2018-12-05T12:36:34.270Z,2.50
2018-12-05T12:39:02.539Z,2.50
2018-12-05T12:41:30.696Z,2.60
2018-12-05T12:43:58.885Z,2.60
2018-12-05T12:46:27.049Z,2.60
2018-12-05T12:48:55.243Z,2.60
2018-12-05T12:51:23.741Z,2.70
2018-12-05T12:53:51.993Z,2.60
2018-12-05T12:56:20.158Z,2.70
2018-12-05T12:58:48.346Z,2.70
2018-12-05T13:01:16.607Z,2.70
2018-12-05T13:03:44.821Z,2.70
2018-12-05T13:06:13.022Z,2.80
2018-12-05T13:08:41.255Z,2.80
2018-12-05T13:11:10.057Z,2.90
2018-12-05T13:13:38.318Z,2.80
2018-12-05T13:16:06.506Z,2.80
2018-12-05T13:18:34.623Z,2.80
2018-12-05T13:21:02.727Z,2.90
2018-12-05T13:23:31.026Z,2.90
2018-12-05T13:25:59.211Z,2.80
2018-12-05T13:28:27.334Z,2.80
2018-12-05T13:30:55.534Z,2.80
2018-12-05T13:33:23.642Z,2.80
2018-12-05T13:35:51.783Z,2.80
2018-12-05T13:38:19.991Z,2.90
2018-12-05T13:40:48.106Z,2.80
2018-12-05T13:43:16.291Z,2.80
2018-12-05T13:45:44.415Z,2.80
2018-12-05T13:48:12.528Z,2.80
2018-12-05T13:50:40.646Z,2.80
2018-12-05T13:53:09.033Z,2.80
2018-12-05T13:55:37.215Z,2.80
2018-12-05T13:58:05.396Z,2.90
2018-12-05T14:00:33.676Z,2.80
2018-12-05T14:03:01.854Z,2.90
2018-12-05T14:05:29.945Z,2.90
2018-12-05T14:07:58.167Z,2.90
2018-12-05T14:10:26.359Z,2.90
2018-12-05T14:12:56.851Z,2.90
2018-12-05T14:15:25.034Z,2.90
2018-12-05T14:17:53.130Z,2.90
2018-12-05T14:20:21.268Z,2.90
2018-12-05T14:22:49.366Z,2.90
2018-12-05T14:25:17.491Z,2.80
2018-12-05T14:27:45.682Z,2.90
2018-12-05T14:30:14.043Z,2.90
2018-12-05T14:32:42.166Z,2.90
2018-12-05T14:35:10.284Z,2.80
2018-12-05T14:37:38.421Z,2.80
2018-12-05T14:40:06.682Z,2.80
2018-12-05T14:42:34.826Z,2.80
2018-12-05T14:45:03.014Z,2.80
2018-12-05T14:47:31.303Z,2.80
2018-12-05T14:49:59.459Z,2.70
2018-12-05T14:52:27.744Z,2.70
2018-12-05T14:54:56.105Z,2.70
2018-12-05T14:57:24.387Z,2.70
2018-12-05T14:59:52.590Z,2.70
2018-12-05T15:02:20.818Z,2.60
2018-12-05T15:04:49.018Z,2.60
2018-12-05T15:07:17.422Z,2.60
2018-12-05T15:09:45.595Z,2.60
2018-12-05T15:12:13.821Z,2.60
2018-12-05T15:14:42.114Z,2.60
2018-12-05T15:17:10.373Z,2.60
2018-12-05T15:19:38.557Z,2.50
2018-12-05T15:22:06.745Z,2.50
2018-12-05T15:24:34.997Z,2.50
2018-12-05T15:27:03.302Z,2.50
2018-12-05T15:29:31.509Z,2.50
2018-12-05T15:31:59.887Z,2.50
2018-12-05T15:34:28.128Z,2.50
2018-12-05T15:36:56.529Z,2.40
2018-12-05T15:39:24.701Z,2.40
2018-12-05T15:41:52.991Z,2.40
2018-12-05T15:44:21.158Z,2.30
2018-12-05T15:46:49.342Z,2.30
2018-12-05T15:49:18.218Z,2.30
2018-12-05T15:51:46.419Z,2.30
2018-12-05T15:54:14.584Z,2.30
2018-12-05T15:56:42.774Z,2.30
2018-12-05T15:59:11.017Z,2.20
2018-12-05T16:01:39.294Z,2.20
2018-12-05T16:04:07.540Z,2.20
2018-12-05T16:06:35.862Z,2.20
2018-12-05T16:09:06.226Z,2.20
2018-12-05T16:11:34.430Z,2.10
2018-12-05T16:14:02.765Z,2.10
2018-12-05T16:16:31.045Z,2.10
2018-12-05T16:18:59.222Z,2.10
2018-12-05T16:21:27.470Z,2.10
2018-12-05T16:23:55.810Z,2.10
2018-12-05T16:26:24.010Z,2.10
2018-12-05T16:28:52.206Z,2.10
2018-12-05T16:31:20.486Z,2.10
2018-12-05T16:33:48.696Z,2.10
2018-12-05T16:36:17.066Z,2.10
2018-12-05T16:38:45.281Z,2.10
2018-12-05T16:41:13.531Z,2.00
2018-12-05T16:43:42.858Z,2.00
2018-12-05T16:46:11.042Z,2.00
2018-12-05T16:48:39.262Z,2.00
2018-12-05T16:51:08.250Z,2.00
2018-12-05T16:53:36.446Z,2.00
2018-12-05T16:56:04.706Z,2.00
2018-12-05T16:58:32.986Z,2.00
2018-12-05T17:01:01.173Z,1.90
2018-12-05T17:03:29.449Z,1.90
2018-12-05T17:05:57.618Z,1.90
2018-12-05T17:08:25.945Z,1.80
2018-12-05T17:10:54.206Z,1.80
2018-12-05T17:13:22.412Z,1.80
2018-12-05T17:15:50.613Z,1.80
2018-12-05T17:18:18.901Z,1.80
2018-12-05T17:20:47.105Z,1.70
2018-12-05T17:23:15.352Z,1.80
2018-12-05T17:25:43.622Z,1.70
2018-12-05T17:28:11.894Z,1.70
2018-12-05T17:30:40.070Z,1.70
2018-12-05T17:33:08.493Z,1.70
2018-12-05T17:35:36.697Z,1.70
2018-12-05T17:38:04.960Z,1.70
2018-12-05T17:40:33.252Z,1.70
2018-12-05T17:43:01.841Z,1.70
2018-12-05T17:45:30.027Z,1.70
2018-12-05T17:47:58.273Z,1.70
2018-12-05T17:50:26.614Z,1.70
2018-12-05T17:52:54.911Z,1.70
2018-12-05T17:55:23.149Z,1.70
2018-12-05T17:57:51.468Z,1.70
2018-12-05T18:00:19.770Z,1.80
2018-12-05T18:02:48.117Z,1.70
2018-12-05T18:05:16.298Z,1.70
2018-12-05T18:07:44.502Z,1.70
2018-12-05T18:10:12.933Z,1.70
2018-12-05T18:12:41.126Z,1.70
2018-12-05T18:15:09.382Z,1.70
2018-12-05T18:17:37.731Z,1.70
2018-12-05T18:20:08.475Z,1.80
2018-12-05T18:22:36.658Z,1.70
2018-12-05T18:25:05.010Z,1.70
2018-12-05T18:27:33.609Z,1.80
2018-12-05T18:30:01.912Z,1.80
2018-12-05T18:32:30.154Z,1.90
2018-12-05T18:34:58.345Z,1.90
2018-12-05T18:37:26.517Z,1.90
2018-12-05T18:39:54.719Z,1.90
2018-12-05T18:42:22.973Z,1.90
2018-12-05T18:44:51.252Z,2.00
2018-12-05T18:47:19.693Z,2.00
2018-12-05T18:49:47.894Z,2.00
2018-12-05T18:52:16.169Z,2.00
2018-12-05T18:54:44.384Z,1.10
2018-12-05T18:57:12.670Z,2.00
2018-12-05T18:59:40.981Z,2.10
2018-12-05T19:02:09.239Z,2.00
2018-12-05T19:04:37.549Z,2.00
2018-12-05T19:07:05.806Z,2.00
2018-12-05T19:09:34.046Z,2.00
2018-12-05T19:12:02.312Z,2.00
2018-12-05T19:14:35.693Z,1.90
2018-12-05T19:17:04.074Z,2.00
2018-12-05T19:19:32.316Z,2.00
2018-12-05T19:22:00.516Z,2.00
2018-12-05T19:24:28.714Z,1.90
2018-12-05T19:26:57.158Z,1.90
2018-12-05T19:29:25.347Z,1.90
2018-12-05T19:31:53.777Z,1.90
2018-12-05T19:34:21.952Z,1.80
2018-12-05T19:36:50.218Z,1.80
2018-12-05T19:39:18.849Z,1.80
2018-12-05T19:41:47.059Z,1.70
2018-12-05T19:44:15.238Z,1.70
2018-12-05T19:46:43.428Z,1.70
2018-12-05T19:49:11.847Z,1.70
2018-12-05T19:51:40.106Z,1.70
2018-12-05T19:54:08.299Z,1.70
2018-12-05T19:56:36.773Z,1.60
2018-12-05T19:59:04.987Z,1.60
2018-12-05T20:01:33.237Z,1.50
2018-12-05T20:04:01.413Z,1.50
2018-12-05T20:06:29.642Z,1.50
2018-12-05T20:08:57.873Z,1.50
2018-12-05T20:11:26.186Z,1.60
2018-12-05T20:13:54.409Z,1.50
2018-12-05T20:16:22.601Z,1.50
2018-12-05T20:18:50.879Z,1.50
2018-12-05T20:21:19.067Z,1.50
2018-12-05T20:23:47.299Z,1.50
2018-12-05T20:26:15.520Z,1.50
2018-12-05T20:28:43.760Z,1.50
2018-12-05T20:31:11.969Z,1.50
2018-12-05T20:33:40.278Z,1.50
2018-12-05T20:36:08.449Z,1.50
2018-12-05T20:38:36.665Z,1.50
2018-12-05T20:41:04.922Z,1.50
2018-12-05T20:43:36.974Z,1.50
2018-12-05T20:49:06.085Z,1.40
2018-12-05T20:51:39.839Z,1.50
2018-12-05T20:54:13.672Z,1.40
2018-12-05T20:56:45.130Z,1.50
2018-12-05T20:59:26.133Z,1.50
2018-12-05T21:01:58.282Z,1.50
2018-12-05T21:04:32.589Z,1.50
2018-12-05T21:07:06.728Z,1.50
2018-12-05T21:09:40.491Z,1.50
2018-12-05T21:14:50.087Z,1.50
2018-12-05T21:17:24.737Z,1.60
2018-12-05T21:20:02.990Z,1.60
2018-12-05T21:22:36.792Z,1.70
2018-12-05T21:25:10.934Z,1.70
2018-12-05T21:27:45.051Z,1.70
2018-12-05T21:30:19.399Z,1.70
2018-12-05T21:32:53.426Z,1.80
2018-12-05T21:35:27.566Z,1.80
2018-12-05T21:38:01.465Z,1.80
2018-12-05T21:40:35.736Z,1.80
2018-12-05T21:48:47.719Z,1.90
2018-12-05T22:23:48.450Z,2.30
2018-12-05T22:26:22.709Z,2.30
2018-12-05T22:28:56.665Z,2.30
2018-12-05T22:31:34.638Z,2.30
2018-12-05T22:34:10.691Z,2.30
2018-12-05T22:36:44.734Z,2.40
2018-12-05T22:39:18.712Z,2.40
2018-12-05T22:41:56.905Z,2.40
2018-12-05T22:44:31.019Z,2.50
2018-12-05T22:47:04.877Z,2.50
2018-12-05T22:49:39.964Z,2.50
2018-12-05T22:52:16.945Z,2.50
2018-12-05T22:54:51.168Z,2.50
2018-12-05T22:57:38.791Z,2.60
2018-12-05T23:00:19.876Z,2.60
2018-12-05T23:05:25.375Z,2.60
2018-12-05T23:07:59.188Z,2.50
2018-12-05T23:13:35.530Z,2.50
2018-12-05T23:16:06.782Z,2.50
2018-12-05T23:21:15.035Z,2.50
2018-12-05T23:28:54.457Z,2.60
2018-12-05T23:31:30.972Z,2.60
2018-12-05T23:34:04.982Z,2.60
2018-12-05T23:36:39.058Z,2.60
2018-12-05T23:41:47.062Z,2.60
2018-12-05T23:44:21.297Z,2.60
2018-12-05T23:46:55.371Z,2.60
2018-12-05T23:52:01.008Z,2.60
2018-12-05T23:54:35.556Z,2.70
2018-12-05T23:57:09.734Z,2.60
2018-12-05T23:59:43.911Z,2.70
